Hinesville, GA (31313)

11:37 AM EST on February 10, 2016 (GMT -0500)
FTST HQ | | Change Station
CLOSE
Current Station
Personal Weather Station
Location: Hinesville, GA
Elevation: 85 ft
Nearby Weather Stations
Active Advisory: Special Statement

Elev 85 ft 31.86 °N, 81.62 °W | Updated 4 minutes ago

Clear
Clear
41.0 °F
Feels Like 33 °F
N
14.5
Wind Variable Wind from NW

Today
High -- | Low -- °F
--% Chance of Precip.
Yesterday
High -- | Low -- °F
Precip. -- in
Pressure 30.13 in
Visibility 10.0 miles
Clouds Clear
Windchill 33 °F
Dew Point 20 °F
Humidity 42%
Rainfall 0.00 in
Snow Depth Not available.
7:13 AM 6:08 PM
Waxing Crescent, 6% visible
METAR KLHW 101558Z AUTO 27020G29KT 10SM CLR 03/M08 A3012 RMK AO2 PK WND 29026/49 SLP203 T00311079 $
Pressure 30.13 in
Visibility 10.0 miles
Clouds Clear
Windchill 33 °F
Dew Point 20 °F
Humidity 42%
Rainfall 0.00 in
Snow Depth Not available.
7:13 AM 6:08 PM
Waxing Crescent, 6% visible
METAR KLHW 101558Z AUTO 27020G29KT 10SM CLR 03/M08 A3012 RMK AO2 PK WND 29026/49 SLP203 T00311079 $

10-Day Weather Forecast

Almanac

Astronomy

Feb. 10, 2016 Rise Set
Actual Time
Civil Twilight
Nautical Twilight
Astronomical Twilight
Moon
Length of Visible Light
Length of Day
Tomorrow will be .
, % of the Moon is Illuminated

Today's Extremes

State Highs State Lows

Community

WunderPhotos

Upload Photos

1,891,881 photos uploaded!

WunderBlog® & News

Nearby

Air Quality

  Air Quality AQ Index Pollutant
Not available.

Snow Depth

Station Depth Elevation

Earthquake Activity

City Distance Mag. Time & Date
Minimum magnitude displayed is 2.5.

Coastal Water Temperatures

Place Temperature

Stations

Nearby Weather Stations

Station Location Temp. Windchill Dew Point Humidity Wind Precip. Elev Updated Type
                   

Watches & Warnings

Special Statement
Issued: 10:48 AM EST Feb. 10, 2016 – National Weather Service

... Breezy conditions through this afternoon...

West winds are expected to gust as high as around 35 mph through
this afternoon... with a few higher gusts possible... especially on
elevated roadways such as bridges and overpasses. This will make
driving high profile vehicles difficult and could lead to some
weak trees falling due to the wet soil across the area.

Precautionary/preparedness actions...

Be careful when driving high profile vehicles across bridges and
overpasses. Be alert for the possibility that some weak trees
could fall.